Weather at Elkin Municipal Airport

Public forecast

Using degrees Fahrenheit for public forecast. Weather courtesy of forecast.io.

Closest aviation weather report (METAR) to Elkin Municipal Airport

Closest report is Wilkes County Airport, 15.5 nm (28.7 km) WSW. Retrieved 2020/09/26 10:35 UTC (24 minutes ago):

KUKF 261035Z AUTO 00000KT 1 1/4SM BR OVC003 15/15 A3010 RMK AO2

Closest aviation forecast (TAF) to Elkin Municipal Airport

Closest forecast is Smith Reynolds Airport, 28.7 nm (53.2 km) ESE. Retrieved 2020/09/26 06:46 UTC (4 hours ago):

TAF KINT 260540Z 2606/2706 03005KT 3SM BR OVC004 TEMPO 2606/2609 2SM -DZ BR OVC003 FM261000 VRB03KT 3SM BR OVC003 FM261500 03003KT P6SM BKN009 FM261700 04005KT P6SM BKN012 BKN025